Time;durP1;ratioP1;P1;durP2;ratioP2;P2;SDS_P1;SDS_P2;PMS_P1;PMS_P2;Temp;Humidity;BMP_temperature;BMP_pressure;BME280_temperature;BME280_humidity;BME280_pressure;Samples;Min_cycle;Max_cycle;Signal;HPM_P1;HPM_P2
2022/08/18 00:01:08;;;;;;;0.10;0.10;;;;;;;;;;4998566;28;20415;-91
2022/08/18 00:03:34;;;;;;;0.00;0.00;;;;;;;;;;4999343;28;20101;-92
2022/08/18 00:06:00;;;;;;;0.03;0.03;;;;;;;;;;4998833;28;20045;-92
2022/08/18 00:08:28;;;;;;;0.10;0.10;;;;;;;;;;4999061;28;20496;-92
2022/08/18 00:10:54;;;;;;;0.10;0.10;;;;;;;;;;4998861;28;20045;-91
2022/08/18 00:13:20;;;;;;;0.10;0.10;;;;;;;;;;4998760;28;20038;-92
2022/08/18 00:15:52;;;;;;;0.00;0.00;;;;;;;;;;4998132;28;20049;-92
2022/08/18 00:18:18;;;;;;;0.00;0.00;;;;;;;;;;4991517;28;20034;-94
2022/08/18 00:20:45;;;;;;;0.03;0.03;;;;;;;;;;4999220;28;20041;-93
2022/08/18 00:23:12;;;;;;;0.10;0.10;;;;;;;;;;4999310;28;20042;-93
2022/08/18 00:25:38;;;;;;;0.00;0.00;;;;;;;;;;4998931;28;20041;-93
2022/08/18 00:28:04;;;;;;;0.08;0.08;;;;;;;;;;4999096;28;20526;-93
2022/08/18 00:30:30;;;;;;;0.10;0.10;;;;;;;;;;4999888;28;20084;-92
2022/08/18 00:32:57;;;;;;;0.15;0.15;;;;;;;;;;4999671;28;20096;-93
2022/08/18 00:35:31;;;;;;;0.10;0.10;;;;;;;;;;4999420;28;20038;-93
2022/08/18 00:38:20;;;;;;;0.10;0.10;;;;;;;;;;4996518;28;20057;-93
2022/08/18 00:40:48;;;;;;;0.00;0.00;;;;;;;;;;4994716;28;20045;-92
2022/08/18 00:43:21;;;;;;;0.03;0.03;;;;;;;;;;4999175;28;20048;-93
2022/08/18 00:45:47;;;;;;;0.00;0.00;;;;;;;;;;4998524;28;20053;-92
2022/08/18 00:48:13;;;;;;;0.13;0.13;;;;;;;;;;4998101;28;20041;-92
2022/08/18 00:50:46;;;;;;;0.10;0.10;;;;;;;;;;4998620;28;20076;-91
2022/08/18 00:53:14;;;;;;;0.00;0.00;;;;;;;;;;4998228;28;20096;-92
2022/08/18 00:55:41;;;;;;;0.00;0.00;;;;;;;;;;4998655;28;20328;-92
2022/08/18 00:58:09;;;;;;;0.10;0.10;;;;;;;;;;4998222;28;20049;-92
2022/08/18 01:00:36;;;;;;;0.10;0.10;;;;;;;;;;4998448;28;20053;-93
2022/08/18 01:03:04;;;;;;;0.00;0.00;;;;;;;;;;4998797;28;20073;-92
2022/08/18 01:05:39;;;;;;;1.55;0.85;;;;;;;;;;4998324;28;20068;-91
2022/08/18 01:08:09;;;;;;;0.00;0.00;;;;;;;;;;4994015;28;20069;-90
2022/08/18 01:10:35;;;;;;;0.10;0.10;;;;;;;;;;4997976;28;20121;-91
2022/08/18 01:13:02;;;;;;;0.00;0.00;;;;;;;;;;5012338;28;20034;-91
2022/08/18 01:15:28;;;;;;;0.10;0.10;;;;;;;;;;5014114;28;20034;-92
2022/08/18 01:23:45;;;;;;;0.00;0.00;;;;;;;;;;4944188;29;20050;-92
2022/08/18 01:26:12;;;;;;;0.05;0.05;;;;;;;;;;4999212;28;20053;-91
2022/08/18 01:28:40;;;;;;;0.08;0.08;;;;;;;;;;4998855;28;20120;-91
2022/08/18 01:31:07;;;;;;;0.15;0.15;;;;;;;;;;4998193;28;20161;-91
2022/08/18 01:33:36;;;;;;;0.10;0.10;;;;;;;;;;4998423;28;20037;-92
2022/08/18 01:36:06;;;;;;;0.10;0.10;;;;;;;;;;4997676;28;20045;-93
2022/08/18 01:38:32;;;;;;;0.00;0.00;;;;;;;;;;4998623;28;20500;-92
2022/08/18 01:40:59;;;;;;;0.00;0.00;;;;;;;;;;4995241;28;20409;-91
2022/08/18 01:43:25;;;;;;;0.10;0.10;;;;;;;;;;4992594;28;20072;-91
2022/08/18 01:45:52;;;;;;;0.00;0.00;;;;;;;;;;4995062;28;20078;-92
2022/08/18 01:48:18;;;;;;;0.03;0.03;;;;;;;;;;4998196;28;20534;-93
2022/08/18 01:50:44;;;;;;;0.00;0.00;;;;;;;;;;4998524;28;20038;-92
2022/08/18 01:53:10;;;;;;;0.10;0.10;;;;;;;;;;4997736;28;20088;-91
2022/08/18 01:55:38;;;;;;;0.10;0.10;;;;;;;;;;4997550;28;20148;-93
2022/08/18 01:58:06;;;;;;;0.05;0.05;;;;;;;;;;4991930;28;20046;-94
2022/08/18 02:00:33;;;;;;;0.00;0.00;;;;;;;;;;4998704;28;20033;-93
2022/08/18 02:03:00;;;;;;;0.10;0.10;;;;;;;;;;4998574;28;20042;-93
2022/08/18 02:05:39;;;;;;;0.00;0.00;;;;;;;;;;4997746;28;20048;-92
2022/08/18 02:08:05;;;;;;;0.10;0.10;;;;;;;;;;4986261;28;20495;-93
2022/08/18 02:10:31;;;;;;;0.10;0.10;;;;;;;;;;4997901;28;20038;-92
2022/08/18 02:12:57;;;;;;;0.10;0.10;;;;;;;;;;4998675;28;20050;-92
2022/08/18 02:15:23;;;;;;;0.10;0.10;;;;;;;;;;4997941;28;20388;-92
2022/08/18 02:17:50;;;;;;;0.10;0.10;;;;;;;;;;4997679;28;20041;-93
2022/08/18 02:20:17;;;;;;;0.10;0.10;;;;;;;;;;4997470;28;20048;-92
2022/08/18 02:22:44;;;;;;;0.10;0.10;;;;;;;;;;4997498;28;20502;-92
2022/08/18 02:25:10;;;;;;;0.00;0.00;;;;;;;;;;4989067;28;20107;-92
2022/08/18 02:27:36;;;;;;;0.10;0.10;;;;;;;;;;4994101;28;20095;-92
2022/08/18 02:30:05;;;;;;;0.10;0.10;;;;;;;;;;4997709;28;20042;-93
2022/08/18 02:32:31;;;;;;;0.03;0.03;;;;;;;;;;4998549;28;20044;-93
2022/08/18 02:34:57;;;;;;;0.00;0.00;;;;;;;;;;4998211;28;20048;-93
2022/08/18 02:37:23;;;;;;;0.10;0.10;;;;;;;;;;4998664;28;20045;-91
2022/08/18 02:39:50;;;;;;;0.10;0.10;;;;;;;;;;4997241;28;20061;-92
2022/08/18 02:42:16;;;;;;;0.10;0.10;;;;;;;;;;4998099;28;20049;-93
2022/08/18 02:44:42;;;;;;;0.05;0.05;;;;;;;;;;4997526;28;20042;-92
2022/08/18 02:47:08;;;;;;;0.00;0.00;;;;;;;;;;4997380;28;20462;-91
2022/08/18 02:49:35;;;;;;;0.10;0.10;;;;;;;;;;4997335;28;20042;-93
2022/08/18 02:52:02;;;;;;;0.00;0.00;;;;;;;;;;4998018;28;20077;-93
2022/08/18 02:54:28;;;;;;;0.10;0.10;;;;;;;;;;4998436;28;20046;-92
2022/08/18 02:56:56;;;;;;;0.10;0.10;;;;;;;;;;4998150;28;20462;-93
2022/08/18 02:59:23;;;;;;;0.10;0.10;;;;;;;;;;4998755;28;20410;-93
2022/08/18 03:01:50;;;;;;;0.00;0.00;;;;;;;;;;4987266;28;20039;-93
2022/08/18 03:04:22;;;;;;;0.10;0.10;;;;;;;;;;4993041;28;20042;-93
2022/08/18 03:06:48;;;;;;;0.00;0.00;;;;;;;;;;4994075;28;20041;-93
2022/08/18 03:09:16;;;;;;;0.10;0.10;;;;;;;;;;4998146;28;20049;-93
2022/08/18 03:11:42;;;;;;;0.00;0.00;;;;;;;;;;4998138;28;20038;-93
2022/08/18 03:14:08;;;;;;;0.10;0.10;;;;;;;;;;4995809;28;20089;-93
2022/08/18 03:16:37;;;;;;;0.05;0.05;;;;;;;;;;5001650;28;20077;-92
2022/08/18 03:19:03;;;;;;;0.10;0.10;;;;;;;;;;4997911;28;20042;-93
2022/08/18 03:21:30;;;;;;;0.00;0.00;;;;;;;;;;4997317;28;20077;-92
2022/08/18 03:23:57;;;;;;;0.00;0.00;;;;;;;;;;5000898;28;20403;-92
2022/08/18 03:26:24;;;;;;;0.10;0.10;;;;;;;;;;5000237;28;20042;-92
2022/08/18 03:28:51;;;;;;;0.10;0.10;;;;;;;;;;5001240;28;20084;-91
2022/08/18 03:31:18;;;;;;;0.00;0.00;;;;;;;;;;5000153;28;20053;-92
2022/08/18 03:33:45;;;;;;;0.10;0.10;;;;;;;;;;5000349;28;20044;-92
2022/08/18 03:36:13;;;;;;;0.03;0.03;;;;;;;;;;5017487;28;20041;-93
2022/08/18 03:38:39;;;;;;;0.13;0.13;;;;;;;;;;4988096;28;20042;-93
2022/08/18 03:41:07;;;;;;;0.10;0.10;;;;;;;;;;5017942;28;20096;-93
2022/08/18 03:43:33;;;;;;;0.10;0.10;;;;;;;;;;4999964;28;20446;-93
2022/08/18 03:46:01;;;;;;;0.10;0.10;;;;;;;;;;4990528;28;20042;-93
2022/08/18 03:48:27;;;;;;;0.10;0.10;;;;;;;;;;5001628;28;20038;-93
2022/08/18 03:50:53;;;;;;;0.08;0.08;;;;;;;;;;5001594;28;20541;-93
2022/08/18 03:53:19;;;;;;;0.10;0.10;;;;;;;;;;5001361;28;20034;-93
2022/08/18 03:55:45;;;;;;;0.25;0.25;;;;;;;;;;4999945;28;20048;-92
2022/08/18 03:58:12;;;;;;;0.10;0.10;;;;;;;;;;5000403;28;20045;-93
2022/08/18 04:00:38;;;;;;;0.10;0.10;;;;;;;;;;5000416;28;20060;-93
2022/08/18 04:03:05;;;;;;;0.00;0.00;;;;;;;;;;4997316;28;20053;-91
2022/08/18 04:05:31;;;;;;;0.13;0.13;;;;;;;;;;4998449;28;20122;-92
2022/08/18 04:07:57;;;;;;;0.10;0.10;;;;;;;;;;5007410;28;20042;-94
2022/08/18 04:10:24;;;;;;;0.00;0.00;;;;;;;;;;5001919;28;20088;-92
2022/08/18 04:12:50;;;;;;;0.10;0.10;;;;;;;;;;4999076;28;20038;-92
2022/08/18 04:15:17;;;;;;;0.10;0.10;;;;;;;;;;4998980;28;20419;-93
2022/08/18 04:17:45;;;;;;;0.10;0.10;;;;;;;;;;4999725;28;20042;-93
2022/08/18 04:20:11;;;;;;;0.10;0.10;;;;;;;;;;4991766;28;20062;-93
2022/08/18 04:22:37;;;;;;;0.03;0.03;;;;;;;;;;5011755;28;20049;-93
2022/08/18 04:25:03;;;;;;;0.08;0.08;;;;;;;;;;4997856;28;20034;-93
2022/08/18 04:27:30;;;;;;;0.10;0.10;;;;;;;;;;4998967;28;20479;-93
2022/08/18 04:29:56;;;;;;;0.08;0.08;;;;;;;;;;4980988;28;20056;-92
2022/08/18 04:32:23;;;;;;;0.10;0.10;;;;;;;;;;5009745;28;20487;-92
2022/08/18 04:34:49;;;;;;;0.10;0.10;;;;;;;;;;4993309;28;20037;-92
2022/08/18 04:37:16;;;;;;;0.10;0.10;;;;;;;;;;4998427;28;20041;-92
2022/08/18 04:39:42;;;;;;;0.00;0.00;;;;;;;;;;4998694;28;20049;-92
2022/08/18 04:42:08;;;;;;;0.10;0.10;;;;;;;;;;4999261;28;20376;-91
2022/08/18 04:44:36;;;;;;;0.10;0.10;;;;;;;;;;4998657;28;20106;-92
2022/08/18 04:47:03;;;;;;;0.10;0.10;;;;;;;;;;5006708;28;20038;-92
2022/08/18 04:49:30;;;;;;;0.00;0.00;;;;;;;;;;4998246;28;20037;-91
2022/08/18 04:54:42;;;;;;;0.00;0.00;;;;;;;;;;5015041;28;20045;-92
2022/08/18 04:57:16;;;;;;;0.10;0.10;;;;;;;;;;5021137;28;20038;-92
2022/08/18 04:59:43;;;;;;;0.10;0.10;;;;;;;;;;4998543;28;20049;-91
2022/08/18 05:02:09;;;;;;;0.00;0.00;;;;;;;;;;4999387;28;20402;-91
2022/08/18 05:04:36;;;;;;;0.10;0.10;;;;;;;;;;4998051;28;20041;-91
2022/08/18 05:07:03;;;;;;;0.08;0.08;;;;;;;;;;4999014;28;20053;-91
2022/08/18 05:09:29;;;;;;;0.10;0.10;;;;;;;;;;4997941;28;20041;-92
2022/08/18 05:11:55;;;;;;;0.00;0.00;;;;;;;;;;4998389;28;20046;-92
2022/08/18 05:14:21;;;;;;;0.00;0.00;;;;;;;;;;4999129;28;20034;-93
2022/08/18 05:16:48;;;;;;;0.00;0.00;;;;;;;;;;4998788;28;20045;-92
2022/08/18 05:19:14;;;;;;;0.08;0.08;;;;;;;;;;5000218;28;20061;-92
2022/08/18 05:21:41;;;;;;;0.05;0.05;;;;;;;;;;5007540;28;20038;-92
2022/08/18 05:24:08;;;;;;;0.10;0.10;;;;;;;;;;4998901;28;20050;-92
2022/08/18 05:26:35;;;;;;;0.10;0.10;;;;;;;;;;5014255;28;20407;-92
2022/08/18 05:29:02;;;;;;;0.03;0.03;;;;;;;;;;4997741;28;20049;-92
2022/08/18 05:31:28;;;;;;;0.10;0.10;;;;;;;;;;4998394;28;20480;-91
2022/08/18 05:33:56;;;;;;;0.00;0.00;;;;;;;;;;4995007;28;20037;-92
2022/08/18 05:36:22;;;;;;;0.10;0.10;;;;;;;;;;4997160;28;20125;-92
2022/08/18 05:38:51;;;;;;;0.00;0.00;;;;;;;;;;5013819;28;20504;-92
2022/08/18 05:41:26;;;;;;;0.10;0.10;;;;;;;;;;4997697;28;20110;-92
2022/08/18 05:43:52;;;;;;;0.10;0.10;;;;;;;;;;4997789;28;20414;-93
2022/08/18 05:46:19;;;;;;;0.10;0.10;;;;;;;;;;4996910;28;20041;-94
2022/08/18 05:48:45;;;;;;;0.10;0.10;;;;;;;;;;4996899;28;20050;-95
2022/08/18 05:51:15;;;;;;;0.10;0.10;;;;;;;;;;4996728;28;20095;-93
2022/08/18 05:56:46;;;;;;;0.10;0.10;;;;;;;;;;5000816;28;20487;-93
2022/08/18 05:59:13;;;;;;;;;;;;;;;;;;4997491;28;20048;-93
2022/08/18 06:01:41;;;;;;;0.00;0.00;;;;;;;;;;5001456;28;19960;-93
2022/08/18 06:04:26;;;;;;;0.00;0.00;;;;;;;;;;4996635;28;20060;-86
2022/08/18 06:06:56;;;;;;;0.03;0.03;;;;;;;;;;4988380;28;20041;-85
2022/08/18 06:09:28;;;;;;;0.10;0.10;;;;;;;;;;4997670;28;20034;-85
2022/08/18 06:11:57;;;;;;;0.17;0.17;;;;;;;;;;4999553;28;20045;-85
2022/08/18 06:14:26;;;;;;;0.00;0.00;;;;;;;;;;4994732;28;20038;-85
2022/08/18 06:17:22;;;;;;;0.10;0.10;;;;;;;;;;4994853;28;20042;-85
2022/08/18 06:20:09;;;;;;;0.00;0.00;;;;;;;;;;4982245;28;20085;-89
2022/08/18 06:22:51;;;;;;;0.00;0.00;;;;;;;;;;4992913;28;20093;-88
2022/08/18 06:25:22;;;;;;;0.10;0.10;;;;;;;;;;5001080;28;20057;-90
2022/08/18 06:27:54;;;;;;;0.10;0.10;;;;;;;;;;4983021;28;20511;-90
2022/08/18 06:30:20;;;;;;;0.10;0.10;;;;;;;;;;4988364;28;20052;-87
2022/08/18 06:33:05;;;;;;;0.10;0.10;;;;;;;;;;5006801;28;20332;-87
2022/08/18 06:35:36;;;;;;;0.00;0.00;;;;;;;;;;4994422;28;20042;-87
2022/08/18 06:41:03;;;;;;;0.00;0.00;;;;;;;;;;5010014;28;20760;-85
2022/08/18 06:43:31;;;;;;;0.00;0.00;;;;;;;;;;4994027;28;20068;-87
2022/08/18 06:45:57;;;;;;;0.00;0.00;;;;;;;;;;4994807;28;20048;-87
2022/08/18 06:48:37;;;;;;;0.10;0.10;;;;;;;;;;4991566;28;20038;-87
2022/08/18 06:51:03;;;;;;;0.00;0.00;;;;;;;;;;4996905;28;20037;-86
2022/08/18 06:53:48;;;;;;;0.00;0.00;;;;;;;;;;5005916;28;20499;-87
2022/08/18 06:56:24;;;;;;;0.03;0.03;;;;;;;;;;5000251;28;20430;-87
2022/08/18 06:58:53;;;;;;;0.10;0.10;;;;;;;;;;4994973;28;20088;-85
2022/08/18 07:01:19;;;;;;;0.00;0.00;;;;;;;;;;5008759;28;20053;-85
2022/08/18 07:03:50;;;;;;;0.10;0.10;;;;;;;;;;5014880;28;20046;-85
2022/08/18 07:06:34;;;;;;;0.08;0.08;;;;;;;;;;4997938;28;20081;-85
2022/08/18 07:09:20;;;;;;;0.00;0.00;;;;;;;;;;5012662;28;20065;-85
2022/08/18 07:11:59;;;;;;;0.00;0.00;;;;;;;;;;5003705;28;20042;-86
2022/08/18 07:14:25;;;;;;;0.08;0.08;;;;;;;;;;4987618;28;20395;-86
2022/08/18 07:17:05;;;;;;;0.00;0.00;;;;;;;;;;4997496;28;20042;-88
2022/08/18 07:19:32;;;;;;;0.00;0.00;;;;;;;;;;5003141;28;20043;-86
2022/08/18 07:22:07;;;;;;;0.10;0.10;;;;;;;;;;4998409;28;20099;-86
2022/08/18 07:24:36;;;;;;;0.00;0.00;;;;;;;;;;5014500;28;20034;-86
2022/08/18 07:27:04;;;;;;;0.10;0.10;;;;;;;;;;4996688;28;20582;-86
2022/08/18 07:29:32;;;;;;;0.00;0.00;;;;;;;;;;4999564;28;20053;-86
2022/08/18 07:32:01;;;;;;;0.10;0.10;;;;;;;;;;5018308;28;20037;-86
2022/08/18 07:34:36;;;;;;;0.05;0.05;;;;;;;;;;4998007;28;20493;-86
2022/08/18 07:37:10;;;;;;;0.10;0.10;;;;;;;;;;4997170;28;20038;-86
2022/08/18 07:39:38;;;;;;;0.10;0.10;;;;;;;;;;5005408;28;20523;-85
2022/08/18 07:42:10;;;;;;;0.00;0.00;;;;;;;;;;4998288;28;20100;-86
2022/08/18 07:44:42;;;;;;;0.00;0.00;;;;;;;;;;5004972;28;20041;-85
2022/08/18 07:47:13;;;;;;;0.17;0.17;;;;;;;;;;4981274;28;20052;-85
2022/08/18 07:49:42;;;;;;;0.10;0.10;;;;;;;;;;4993317;28;20034;-84
2022/08/18 07:52:15;;;;;;;0.10;0.10;;;;;;;;;;4997593;28;20495;-86
2022/08/18 07:54:56;;;;;;;0.00;0.00;;;;;;;;;;4998008;28;20037;-84
2022/08/18 07:57:28;;;;;;;0.10;0.10;;;;;;;;;;5009193;28;20042;-87
2022/08/18 08:00:03;;;;;;;0.00;0.00;;;;;;;;;;4997002;28;20049;-89
2022/08/18 08:02:47;;;;;;;0.00;0.00;;;;;;;;;;4998035;28;20121;-89
2022/08/18 08:05:24;;;;;;;0.10;0.10;;;;;;;;;;4991139;28;20045;-89
2022/08/18 08:07:58;;;;;;;0.00;0.00;;;;;;;;;;5003586;28;20048;-91
2022/08/18 08:10:44;;;;;;;0.07;0.07;;;;;;;;;;4997723;28;20042;-90
2022/08/18 08:16:27;;;;;;;0.10;0.10;;;;;;;;;;5013257;28;20392;-87
2022/08/18 08:19:22;;;;;;;0.00;0.00;;;;;;;;;;4984984;28;20043;-89
2022/08/18 08:21:48;;;;;;;;;;;;;;;;;;4981928;28;20054;-86
2022/08/18 08:24:25;;;;;;;0.05;0.05;;;;;;;;;;5002917;28;20341;-88
2022/08/18 08:27:11;;;;;;;0.05;0.05;;;;;;;;;;4997770;28;20034;-88
2022/08/18 08:29:43;;;;;;;0.00;0.00;;;;;;;;;;4988263;28;20042;-87
2022/08/18 08:32:21;;;;;;;0.10;0.10;;;;;;;;;;5010059;28;20065;-88
2022/08/18 08:34:51;;;;;;;0.00;0.00;;;;;;;;;;5000738;28;20419;-90
2022/08/18 08:37:29;;;;;;;0.10;0.10;;;;;;;;;;5002535;28;20077;-88
2022/08/18 08:40:18;;;;;;;0.00;0.00;;;;;;;;;;4996652;28;20042;-94
2022/08/18 08:42:53;;;;;;;0.00;0.00;;;;;;;;;;4985410;28;20061;-93
2022/08/18 08:45:27;;;;;;;0.00;0.00;;;;;;;;;;5002233;28;20038;-94
2022/08/18 09:02:26;;;;;;;;;;;;;;;;;;;;;
2022/08/18 10:26:00;;;;;;;0.00;0.00;;;;;;;;;;776110;22;20427;-93
2022/08/18 10:28:49;;;;;;;0.10;0.10;;;;;;;;;;5031516;28;20029;-94
2022/08/18 10:31:28;;;;;;;0.10;0.10;;;;;;;;;;5022238;28;20487;-95
2022/08/18 10:33:54;;;;;;;0.00;0.00;;;;;;;;;;5034567;28;20046;-94
2022/08/18 10:36:43;;;;;;;0.03;0.03;;;;;;;;;;5034338;28;20083;-96
2022/08/18 10:39:18;;;;;;;0.00;0.00;;;;;;;;;;5030196;28;20510;-94
2022/08/18 10:41:52;;;;;;;0.05;0.05;;;;;;;;;;5032546;28;20449;-94
2022/08/18 10:44:21;;;;;;;0.10;0.10;;;;;;;;;;5032523;28;20061;-93
2022/08/18 10:46:48;;;;;;;0.00;0.00;;;;;;;;;;5042302;28;20045;-90
2022/08/18 10:49:21;;;;;;;0.10;0.10;;;;;;;;;;5030919;28;20132;-95
2022/08/18 10:52:06;;;;;;;0.10;0.10;;;;;;;;;;5053834;28;20055;-90
2022/08/18 10:54:38;;;;;;;0.00;0.00;;;;;;;;;;5036696;28;20559;-90
2022/08/18 10:57:22;;;;;;;0.08;0.08;;;;;;;;;;5027574;28;20124;-90
2022/08/18 11:00:20;;;;;;;0.05;0.05;;;;;;;;;;5033917;28;20062;-87
2022/08/18 11:03:08;;;;;;;0.10;0.10;;;;;;;;;;5033565;28;20038;-89
2022/08/18 11:05:41;;;;;;;0.00;0.00;;;;;;;;;;5045182;28;20041;-88
2022/08/18 11:08:12;;;;;;;0.00;0.00;;;;;;;;;;5026329;28;20042;-91
2022/08/18 11:10:47;;;;;;;0.00;0.00;;;;;;;;;;5033526;28;20402;-91
2022/08/18 11:13:33;;;;;;;0.00;0.00;;;;;;;;;;5040270;28;20053;-90
2022/08/18 11:16:21;;;;;;;0.00;0.00;;;;;;;;;;5029835;28;20126;-89
2022/08/18 11:18:57;;;;;;;0.10;0.10;;;;;;;;;;5037177;28;20044;-93
2022/08/18 11:21:30;;;;;;;0.10;0.10;;;;;;;;;;5049171;28;20049;-95
2022/08/18 11:24:08;;;;;;;0.00;0.00;;;;;;;;;;5039174;28;20076;-93
2022/08/18 11:26:37;;;;;;;0.10;0.10;;;;;;;;;;5026822;28;20064;-94
2022/08/18 11:29:20;;;;;;;0.00;0.00;;;;;;;;;;5036495;28;20450;-95
2022/08/18 11:31:46;;;;;;;0.10;0.10;;;;;;;;;;5039310;28;20100;-93
2022/08/18 11:34:18;;;;;;;0.10;0.10;;;;;;;;;;5031720;28;20090;-93
2022/08/18 11:36:44;;;;;;;0.00;0.00;;;;;;;;;;5041199;28;20045;-94
2022/08/18 11:39:11;;;;;;;0.13;0.13;;;;;;;;;;5032916;28;20049;-94
2022/08/18 11:41:53;;;;;;;0.00;0.00;;;;;;;;;;5049863;28;20041;-95
2022/08/18 11:44:23;;;;;;;0.00;0.00;;;;;;;;;;5027409;28;20379;-94
2022/08/18 11:47:08;;;;;;;0.00;0.00;;;;;;;;;;5037622;28;20045;-92
2022/08/18 11:49:34;;;;;;;;;;;;;;;;;;5035632;28;20400;-94
2022/08/18 11:52:16;;;;;;;0.10;0.10;;;;;;;;;;5034817;28;19917;-95
2022/08/18 11:54:45;;;;;;;0.10;0.10;;;;;;;;;;5031746;28;20045;-92
2022/08/18 11:57:28;;;;;;;0.10;0.10;;;;;;;;;;5025293;28;20049;-91
2022/08/18 11:59:55;;;;;;;0.10;0.10;;;;;;;;;;5027640;28;20064;-91
2022/08/18 12:02:24;;;;;;;0.00;0.00;;;;;;;;;;5035324;28;20037;-92
2022/08/18 12:04:52;;;;;;;0.05;0.05;;;;;;;;;;5036869;28;20517;-92
2022/08/18 12:07:26;;;;;;;0.10;0.10;;;;;;;;;;5040691;28;20041;-91
2022/08/18 12:10:08;;;;;;;0.10;0.10;;;;;;;;;;5036933;28;20064;-92
2022/08/18 12:12:34;;;;;;;0.00;0.00;;;;;;;;;;5033749;28;20056;-92
2022/08/18 12:15:05;;;;;;;0.10;0.10;;;;;;;;;;5038541;28;20021;-92
2022/08/18 12:17:44;;;;;;;0.00;0.00;;;;;;;;;;5038107;28;20036;-91
2022/08/18 12:20:11;;;;;;;0.08;0.08;;;;;;;;;;5031126;28;20025;-91
2022/08/18 12:22:39;;;;;;;0.10;0.10;;;;;;;;;;5032284;28;20043;-90
2022/08/18 12:25:07;;;;;;;0.00;0.00;;;;;;;;;;5035402;28;20045;-90
2022/08/18 12:27:33;;;;;;;0.03;0.03;;;;;;;;;;5038260;28;20037;-91
2022/08/18 12:30:00;;;;;;;0.10;0.10;;;;;;;;;;5032143;28;20041;-91
2022/08/18 12:32:28;;;;;;;0.00;0.00;;;;;;;;;;5033476;28;20038;-89
2022/08/18 12:34:54;;;;;;;0.00;0.00;;;;;;;;;;5028153;28;20069;-91
2022/08/18 12:37:23;;;;;;;0.00;0.00;;;;;;;;;;5028548;28;20487;-88
2022/08/18 12:39:50;;;;;;;0.10;0.10;;;;;;;;;;5024079;28;20042;-89
2022/08/18 12:42:18;;;;;;;0.10;0.10;;;;;;;;;;5031680;28;20461;-90
2022/08/18 12:44:53;;;;;;;0.03;0.03;;;;;;;;;;5027840;28;20041;-91
2022/08/18 12:47:20;;;;;;;0.00;0.00;;;;;;;;;;5033306;28;20574;-91
2022/08/18 12:49:47;;;;;;;0.00;0.00;;;;;;;;;;5033764;28;20037;-91
2022/08/18 12:52:13;;;;;;;0.10;0.10;;;;;;;;;;5032259;28;20048;-89
2022/08/18 12:54:42;;;;;;;0.10;0.10;;;;;;;;;;5031776;28;20502;-90
2022/08/18 12:57:10;;;;;;;0.10;0.10;;;;;;;;;;5027959;28;20041;-90
2022/08/18 12:59:55;;;;;;;0.00;0.00;;;;;;;;;;5027461;28;20086;-90
2022/08/18 13:02:21;;;;;;;0.00;0.00;;;;;;;;;;5026592;28;20052;-91
2022/08/18 13:04:47;;;;;;;0.10;0.10;;;;;;;;;;5022500;28;20100;-90
2022/08/18 13:07:14;;;;;;;0.10;0.10;;;;;;;;;;5029800;28;20040;-90
2022/08/18 13:09:41;;;;;;;0.10;0.10;;;;;;;;;;5036043;28;20102;-90
2022/08/18 13:12:08;;;;;;;0.10;0.10;;;;;;;;;;5038889;28;20093;-90
2022/08/18 13:14:34;;;;;;;0.10;0.10;;;;;;;;;;5034330;28;20029;-88
2022/08/18 13:17:00;;;;;;;0.10;0.10;;;;;;;;;;5034544;28;20123;-88
2022/08/18 13:19:27;;;;;;;0.10;0.10;;;;;;;;;;5027303;28;20052;-89
2022/08/18 13:21:53;;;;;;;0.00;0.00;;;;;;;;;;5029939;28;20040;-91
2022/08/18 13:24:19;;;;;;;0.10;0.10;;;;;;;;;;5033248;28;20045;-91
2022/08/18 13:26:46;;;;;;;0.00;0.00;;;;;;;;;;5031923;28;20774;-90
2022/08/18 13:29:16;;;;;;;0.00;0.00;;;;;;;;;;5034113;28;20037;-91
2022/08/18 13:31:43;;;;;;;0.10;0.10;;;;;;;;;;5032754;28;20462;-91
2022/08/18 13:34:26;;;;;;;0.10;0.10;;;;;;;;;;5030167;28;20034;-90
2022/08/18 13:36:52;;;;;;;0.10;0.10;;;;;;;;;;5032050;28;20091;-91
2022/08/18 13:39:20;;;;;;;0.00;0.00;;;;;;;;;;5026241;28;20565;-88
2022/08/18 13:41:48;;;;;;;0.10;0.10;;;;;;;;;;5033261;28;20041;-90
2022/08/18 13:44:17;;;;;;;0.10;0.10;;;;;;;;;;5026425;28;20528;-90
2022/08/18 13:46:46;;;;;;;0.10;0.10;;;;;;;;;;5035102;28;20072;-91
2022/08/18 13:49:14;;;;;;;0.03;0.03;;;;;;;;;;5030339;28;20049;-89
2022/08/18 13:51:51;;;;;;;0.10;0.10;;;;;;;;;;5023352;28;20037;-90
2022/08/18 13:54:21;;;;;;;0.10;0.10;;;;;;;;;;5031688;28;20559;-91
2022/08/18 13:56:47;;;;;;;0.08;0.08;;;;;;;;;;5036496;28;20054;-90
2022/08/18 13:59:13;;;;;;;0.00;0.00;;;;;;;;;;5029743;28;20060;-90
2022/08/18 14:01:40;;;;;;;0.10;0.10;;;;;;;;;;5026103;28;20058;-90
2022/08/18 14:04:07;;;;;;;0.00;0.00;;;;;;;;;;5029301;28;20045;-90
2022/08/18 14:06:33;;;;;;;0.10;0.10;;;;;;;;;;5030739;28;20087;-89
2022/08/18 14:08:59;;;;;;;0.10;0.10;;;;;;;;;;5026463;28;20041;-89
2022/08/18 14:11:27;;;;;;;0.00;0.00;;;;;;;;;;5028048;28;20486;-90
2022/08/18 14:13:54;;;;;;;0.00;0.00;;;;;;;;;;5032551;28;20041;-91
2022/08/18 14:16:20;;;;;;;0.00;0.00;;;;;;;;;;5048947;28;20393;-91
2022/08/18 14:26:47;;;;;;;0.10;0.10;;;;;;;;;;5034306;28;20045;-90
2022/08/18 14:27:04;;;;;;;0.00;0.00;;;;;;;;;;5036256;28;20046;-91
2022/08/18 14:29:32;;;;;;;0.10;0.10;;;;;;;;;;5028700;28;20096;-90
2022/08/18 14:31:58;;;;;;;0.10;0.10;;;;;;;;;;5030148;28;20041;-89
2022/08/18 14:34:24;;;;;;;0.00;0.00;;;;;;;;;;5031427;28;20048;-90
2022/08/18 14:36:53;;;;;;;0.10;0.10;;;;;;;;;;5028503;28;20042;-91
2022/08/18 14:39:19;;;;;;;0.10;0.10;;;;;;;;;;5032758;28;20087;-89
2022/08/18 14:41:45;;;;;;;0.10;0.10;;;;;;;;;;5025512;28;20056;-89
2022/08/18 14:44:12;;;;;;;0.10;0.10;;;;;;;;;;5036188;28;20052;-90
2022/08/18 14:46:38;;;;;;;0.10;0.10;;;;;;;;;;5031471;28;20418;-89
2022/08/18 14:49:05;;;;;;;0.10;0.10;;;;;;;;;;5034514;28;20072;-90
2022/08/18 14:51:31;;;;;;;0.10;0.10;;;;;;;;;;5035142;28;20062;-89
2022/08/18 14:54:01;;;;;;;0.15;0.15;;;;;;;;;;5030932;28;20044;-90
2022/08/18 14:56:28;;;;;;;0.20;0.20;;;;;;;;;;5029645;28;20091;-90
2022/08/18 14:58:54;;;;;;;0.10;0.10;;;;;;;;;;5026817;28;20052;-89
2022/08/18 15:01:20;;;;;;;0.10;0.10;;;;;;;;;;5022409;28;20049;-90
2022/08/18 15:03:46;;;;;;;0.10;0.10;;;;;;;;;;5038780;28;20065;-87
2022/08/18 15:06:13;;;;;;;0.00;0.00;;;;;;;;;;5043263;28;20045;-90
2022/08/18 15:08:39;;;;;;;0.10;0.10;;;;;;;;;;5028590;28;20559;-90
2022/08/18 15:11:06;;;;;;;0.10;0.10;;;;;;;;;;5024684;28;20066;-90
2022/08/18 15:13:33;;;;;;;0.10;0.10;;;;;;;;;;5038773;28;20087;-92
2022/08/18 15:16:00;;;;;;;0.10;0.10;;;;;;;;;;5026086;28;20041;-92
2022/08/18 15:18:26;;;;;;;0.10;0.10;;;;;;;;;;5028693;28;20125;-92
2022/08/18 15:26:44;;;;;;;0.10;0.10;;;;;;;;;;5046017;28;20087;-93
2022/08/18 15:29:11;;;;;;;0.10;0.10;;;;;;;;;;5039717;28;20398;-93
2022/08/18 15:31:38;;;;;;;0.10;0.10;;;;;;;;;;5037091;28;20095;-92
2022/08/18 15:34:05;;;;;;;0.20;0.20;;;;;;;;;;5037023;28;20049;-93
2022/08/18 15:36:31;;;;;;;0.10;0.10;;;;;;;;;;5029205;28;20048;-92
2022/08/18 15:38:58;;;;;;;0.10;0.10;;;;;;;;;;5035304;28;20069;-93
2022/08/18 15:41:28;;;;;;;0.05;0.05;;;;;;;;;;5041707;28;20048;-93
2022/08/18 15:43:55;;;;;;;0.10;0.10;;;;;;;;;;5034556;28;20123;-92
2022/08/18 15:46:22;;;;;;;0.10;0.10;;;;;;;;;;5039259;28;20124;-92
2022/08/18 15:48:48;;;;;;;0.10;0.10;;;;;;;;;;5035086;28;20469;-93
2022/08/18 15:51:14;;;;;;;0.00;0.00;;;;;;;;;;5039126;28;20048;-93
2022/08/18 15:53:45;;;;;;;0.10;0.10;;;;;;;;;;5029202;28;20389;-92
2022/08/18 15:56:12;;;;;;;0.10;0.10;;;;;;;;;;5041346;28;20067;-92
2022/08/18 15:58:39;;;;;;;0.10;0.10;;;;;;;;;;5041909;28;20103;-92
2022/08/18 16:01:09;;;;;;;0.10;0.10;;;;;;;;;;5037535;28;20111;-93
2022/08/18 16:03:35;;;;;;;0.10;0.10;;;;;;;;;;5035291;28;20048;-93
2022/08/18 16:06:01;;;;;;;0.10;0.10;;;;;;;;;;5030460;28;20526;-94
2022/08/18 16:08:27;;;;;;;0.00;0.00;;;;;;;;;;5033573;28;20071;-92
2022/08/18 16:10:54;;;;;;;0.20;0.20;;;;;;;;;;5033837;28;20048;-92
2022/08/18 16:24:04;;;;;;;0.20;0.20;;;;;;;;;;6313112;22;1288126;-92
2022/08/18 16:26:30;;;;;;;0.10;0.10;;;;;;;;;;6298651;22;20516;-92
2022/08/18 16:28:56;;;;;;;0.17;0.17;;;;;;;;;;6298628;22;20452;-92
2022/08/18 16:31:23;;;;;;;0.10;0.10;;;;;;;;;;6298885;22;20018;-92
2022/08/18 16:33:51;;;;;;;0.00;0.00;;;;;;;;;;6299000;22;20025;-91
2022/08/18 16:36:17;;;;;;;0.00;0.00;;;;;;;;;;6298124;22;20097;-92
2022/08/18 16:38:43;;;;;;;0.10;0.10;;;;;;;;;;6296470;22;20384;-92
2022/08/18 16:41:23;;;;;;;0.10;0.10;;;;;;;;;;6297158;22;20014;-92
2022/08/18 16:43:49;;;;;;;0.10;0.10;;;;;;;;;;6322029;22;20014;-92
2022/08/18 16:46:25;;;;;;;0.10;0.10;;;;;;;;;;6297783;22;20034;-92
2022/08/18 16:48:51;;;;;;;0.00;0.00;;;;;;;;;;6297735;22;20015;-92
2022/08/18 16:51:20;;;;;;;0.10;0.10;;;;;;;;;;6298599;22;20014;-92
2022/08/18 16:53:48;;;;;;;0.00;0.00;;;;;;;;;;6299487;22;20596;-92
2022/08/18 16:56:19;;;;;;;0.10;0.10;;;;;;;;;;6298629;22;20153;-92
2022/08/18 17:04:34;;;;;;;0.10;0.10;;;;;;;;;;6325352;22;20023;-90
2022/08/18 17:07:03;;;;;;;0.00;0.00;;;;;;;;;;6298010;22;20018;-91
2022/08/18 17:09:29;;;;;;;0.10;0.10;;;;;;;;;;6298589;22;20007;-92
2022/08/18 17:11:55;;;;;;;0.10;0.10;;;;;;;;;;6298516;22;20399;-92
2022/08/18 17:14:23;;;;;;;0.00;0.00;;;;;;;;;;6298833;22;20018;-91
2022/08/18 17:16:52;;;;;;;0.10;0.10;;;;;;;;;;6297484;22;20018;-91
2022/08/18 17:19:18;;;;;;;0.05;0.05;;;;;;;;;;6297990;22;20019;-92
2022/08/18 17:21:54;;;;;;;0.10;0.10;;;;;;;;;;6299152;22;20099;-91